South Wilmington, Illinois
Current Conditions -  °F | °C
As of 3:35 PM on Saturday 25 Oct 2014 (Local Time) from KC09 Reporting Station
Clear Clear  
Wind Chill: 74°   Ceiling: Unl
Heat Index: 74°   Visibility: 10mi
Dew Point: 35°   Wind: 17mph
Humidity: 24%   Direction: 290°WNW
Pressure: 29.93"   Gusts: 23mph
Location:  41.17°N, 88.28°W
Report Text: KC09 252035Z AUTO 29015G20KT 10SM CLR 24/02 A2993 RMK AO2 T02350015
Loading
Personal Weather Stations






























Interactive Weather Map
Tropical Storm Tracking
New forecast layout! Learn more

10-Day Weather Forecast

Advertisements
Track Severe Weather on mobile